Time;durP1;ratioP1;P1;durP2;ratioP2;P2;SDS_P1;SDS_P2;PMS_P1;PMS_P2;Temp;Humidity;BMP_temperature;BMP_pressure;BME280_temperature;BME280_humidity;BME280_pressure;Samples;Min_cycle;Max_cycle;Signal;HPM_P1;HPM_P2
2022/06/28 00:01:56;;;;;;;2.63;1.60;;;;;;;25.30;47.88;100099.97;4159584;28;20232;-68
2022/06/28 00:03:58;;;;;;;3.03;2.10;;;;;;;25.31;47.99;100101.63;4160368;28;20620;-68
2022/06/28 00:05:59;;;;;;;3.07;2.23;;;;;;;25.16;48.29;100102.22;4160813;28;20290;-68
2022/06/28 00:08:01;;;;;;;1.87;1.70;;;;;;;25.39;47.88;100100.41;4149660;28;20232;-68
2022/06/28 00:10:05;;;;;;;4.00;1.90;;;;;;;24.96;48.81;100105.41;4154813;28;20245;-68
2022/06/28 00:12:07;;;;;;;2.07;1.60;;;;;;;25.13;48.27;100088.28;4152768;28;20228;-68
2022/06/28 00:16:31;;;;;;;2.13;1.70;;;;;;;25.05;48.08;100098.50;4137813;28;20225;-68
2022/06/28 00:18:38;;;;;;;2.43;1.57;;;;;;;25.21;47.74;100096.84;4144442;28;20272;-70
2022/06/28 00:20:39;;;;;;;2.67;1.50;;;;;;;25.57;47.22;100091.13;4147804;28;20237;-70
2022/06/28 00:22:41;;;;;;;1.93;1.73;;;;;;;24.72;49.44;100103.91;4143816;28;20801;-70
2022/06/28 00:24:43;;;;;;;1.70;1.60;;;;;;;25.05;48.36;100100.38;4143309;28;20249;-70
2022/06/28 00:26:46;;;;;;;4.50;1.93;;;;;;;24.76;49.26;100100.41;4144012;28;21018;-70
2022/06/28 00:28:48;;;;;;;2.10;1.50;;;;;;;24.83;49.24;100083.97;4143836;28;20381;-69
2022/06/28 00:30:50;;;;;;;4.30;1.50;;;;;;;24.98;48.86;100084.22;4141310;28;20241;-69
2022/06/28 00:32:52;;;;;;;1.93;1.77;;;;;;;25.13;48.96;100074.69;4143451;28;20261;-69
2022/06/28 00:34:54;;;;;;;4.60;1.70;;;;;;;24.95;49.01;100079.31;4148497;28;20741;-69
2022/06/28 00:36:59;;;;;;;3.77;2.00;;;;;;;24.76;49.12;100081.38;4160448;28;20324;-69
2022/06/28 00:39:00;;;;;;;3.17;1.90;;;;;;;25.09;48.31;100076.22;4145957;28;20241;-69
2022/06/28 00:41:02;;;;;;;2.53;1.80;;;;;;;25.08;48.62;100077.31;4144514;28;20750;-69
2022/06/28 00:43:04;;;;;;;2.90;1.87;;;;;;;24.46;50.19;100085.22;4142933;28;20245;-69
2022/06/28 00:45:07;;;;;;;4.10;1.73;;;;;;;23.84;50.88;100082.31;4147634;28;20245;-69
2022/06/28 00:47:09;;;;;;;1.80;1.70;;;;;;;23.53;51.80;100071.56;4145677;28;20237;-70
2022/06/28 00:49:12;;;;;;;2.27;1.80;;;;;;;23.98;50.77;100063.88;4151571;28;20240;-69
2022/06/28 00:51:15;;;;;;;2.10;1.60;;;;;;;24.37;49.94;100061.41;4159803;28;20287;-70
2022/06/28 00:53:18;;;;;;;2.37;2.03;;;;;;;24.67;48.96;100074.72;4160357;28;20236;-69
2022/06/28 00:55:19;;;;;;;1.90;1.67;;;;;;;24.67;49.33;100066.56;4157892;28;20791;-69
2022/06/28 00:57:21;;;;;;;2.83;2.07;;;;;;;24.50;49.76;100075.50;4147278;28;20287;-69
2022/06/28 00:59:23;;;;;;;4.60;1.83;;;;;;;24.09;50.50;100080.13;4143256;28;20229;-69
2022/06/28 01:01:25;;;;;;;1.93;1.70;;;;;;;23.49;51.62;100078.56;4143233;28;20257;-69
2022/06/28 01:03:27;;;;;;;3.43;1.87;;;;;;;23.69;51.08;100071.97;4143065;28;20272;-69
2022/06/28 01:05:29;;;;;;;2.30;1.70;;;;;;;23.72;50.90;100077.75;4142484;28;20324;-69
2022/06/28 01:07:31;;;;;;;2.33;1.60;;;;;;;23.57;51.37;100066.56;4142778;28;20237;-69
2022/06/28 01:09:33;;;;;;;2.57;2.00;;;;;;;23.28;51.50;100077.28;4144252;28;20761;-69
2022/06/28 01:11:35;;;;;;;3.37;1.60;;;;;;;23.50;51.46;100069.38;4143221;28;20260;-69
2022/06/28 01:13:36;;;;;;;4.40;1.80;;;;;;;23.48;51.23;100059.78;4143038;28;20237;-69
2022/06/28 01:15:41;;;;;;;4.37;1.90;;;;;;;25.21;47.78;100053.31;4142903;28;20238;-70
2022/06/28 01:17:43;;;;;;;4.72;2.25;;;;;;;25.20;47.01;100080.78;4143724;28;20237;-69
2022/06/28 01:19:44;;;;;;;3.23;2.00;;;;;;;24.99;47.67;100085.06;4142443;28;20233;-69
2022/06/28 01:21:49;;;;;;;2.00;1.80;;;;;;;24.79;48.10;100091.81;4145041;28;20904;-69
2022/06/28 01:23:50;;;;;;;4.90;2.10;;;;;;;24.71;48.05;100089.47;4143712;28;20620;-69
2022/06/28 01:25:52;;;;;;;6.00;2.13;;;;;;;24.90;48.23;100087.34;4142423;28;20259;-69
2022/06/28 01:27:55;;;;;;;3.00;1.90;;;;;;;24.41;48.39;100101.44;4142406;28;20237;-69
2022/06/28 01:29:57;;;;;;;3.47;2.20;;;;;;;24.71;48.17;100113.09;4140477;28;20233;-69
2022/06/28 01:31:58;;;;;;;2.93;2.17;;;;;;;24.28;49.28;100102.53;4143304;28;20340;-69
2022/06/28 01:34:01;;;;;;;2.77;2.10;;;;;;;23.99;49.96;100108.97;4142172;28;20264;-69
2022/06/28 01:36:07;;;;;;;3.13;2.17;;;;;;;24.13;49.49;100107.63;4149497;28;20287;-69
2022/06/28 01:38:10;;;;;;;5.27;1.77;;;;;;;24.29;49.18;100101.47;4160008;28;20282;-69
2022/06/28 01:40:12;;;;;;;3.17;2.20;;;;;;;24.18;49.19;100106.97;4159136;28;20232;-69
2022/06/28 01:42:13;;;;;;;3.07;2.13;;;;;;;23.88;49.84;100100.59;4159062;28;20232;-69
2022/06/28 01:44:15;;;;;;;4.37;2.07;;;;;;;24.75;48.03;100085.19;4153529;28;20284;-69
2022/06/28 01:46:17;;;;;;;3.03;2.00;;;;;;;24.23;49.42;100096.19;4141303;28;20229;-69
2022/06/28 01:48:19;;;;;;;4.67;2.23;;;;;;;24.60;48.22;100101.25;4143259;28;20225;-69
2022/06/28 01:50:21;;;;;;;5.20;2.20;;;;;;;24.49;48.90;100092.06;4158582;28;20611;-70
2022/06/28 01:52:23;;;;;;;2.23;2.07;;;;;;;24.82;47.71;100094.03;4157892;28;20274;-69
2022/06/28 01:54:25;;;;;;;4.00;2.30;;;;;;;24.58;48.35;100104.19;4159107;28;20787;-69
2022/06/28 01:56:27;;;;;;;5.80;2.27;;;;;;;24.45;48.63;100096.34;4152483;28;20229;-69
2022/06/28 01:58:29;;;;;;;2.73;2.03;;;;;;;24.49;48.66;100095.59;4142319;28;20829;-69
2022/06/28 02:00:31;;;;;;;4.73;2.20;;;;;;;24.28;48.97;100109.88;4149637;28;20616;-69
2022/06/28 02:02:32;;;;;;;2.37;2.07;;;;;;;24.97;47.70;100101.63;4157718;28;20237;-69
2022/06/28 02:04:34;;;;;;;2.97;2.10;;;;;;;24.33;49.09;100107.25;4157821;28;20326;-70
2022/06/28 02:06:36;;;;;;;3.63;2.20;;;;;;;23.88;49.76;100111.47;4153914;28;20236;-69
2022/06/28 02:08:38;;;;;;;4.77;2.37;;;;;;;23.36;51.01;100105.94;4142194;28;20737;-69
2022/06/28 02:10:39;;;;;;;4.07;2.07;;;;;;;24.06;49.94;100093.38;4141837;28;20587;-69
2022/06/28 02:12:41;;;;;;;5.30;2.30;;;;;;;23.72;50.63;100099.47;4142467;28;20603;-69
2022/06/28 02:14:43;;;;;;;3.80;2.30;;;;;;;23.69;50.45;100099.13;4141506;28;20237;-70
2022/06/28 02:16:46;;;;;;;4.90;2.20;;;;;;;23.46;51.16;100103.44;4142414;28;20292;-70
2022/06/28 02:18:47;;;;;;;3.13;2.20;;;;;;;24.09;50.09;100085.56;4142090;28;20291;-69
2022/06/28 02:20:49;;;;;;;2.50;2.30;;;;;;;24.21;49.64;100085.56;4145784;28;20263;-70
2022/06/28 02:22:51;;;;;;;2.53;2.30;;;;;;;23.80;50.63;100100.16;4142733;28;20244;-70
2022/06/28 02:24:52;;;;;;;3.80;2.60;;;;;;;24.67;49.22;100089.13;4141469;28;20245;-69
2022/06/28 02:26:54;;;;;;;2.73;2.50;;;;;;;24.79;48.86;100099.16;4142721;28;20245;-68
2022/06/28 02:28:56;;;;;;;2.90;2.50;;;;;;;24.67;49.15;100110.88;4142477;28;20233;-68
2022/06/28 02:30:57;;;;;;;5.43;2.50;;;;;;;24.59;49.25;100111.25;4141519;28;20271;-68
2022/06/28 02:32:59;;;;;;;6.13;2.83;;;;;;;24.90;48.62;100109.13;4141975;28;20388;-68
2022/06/28 02:42:02;;;;;;;4.63;2.63;;;;;;;24.97;48.17;100131.56;4142122;28;20814;-68
2022/06/28 02:44:04;;;;;;;7.43;2.90;;;;;;;25.02;48.22;100133.53;4139215;28;20241;-68
2022/06/28 02:46:06;;;;;;;4.20;2.37;;;;;;;24.96;47.93;100138.06;4140968;28;20287;-69
2022/06/28 02:48:09;;;;;;;7.20;2.60;;;;;;;24.97;47.54;100141.59;4144416;28;20236;-69
2022/06/28 02:50:11;;;;;;;6.37;2.90;;;;;;;24.76;48.05;100151.28;4148490;28;20233;-68
2022/06/28 02:52:12;;;;;;;8.50;3.07;;;;;;;24.90;47.33;100144.47;4158258;28;20236;-68
2022/06/28 02:54:14;;;;;;;4.97;3.00;;;;;;;24.92;47.69;100146.94;4158436;28;20290;-68
2022/06/28 02:56:16;;;;;;;6.03;2.97;;;;;;;24.90;47.75;100152.63;4132292;28;20241;-68
2022/06/28 02:58:17;;;;;;;3.37;2.97;;;;;;;24.79;47.89;100148.09;4141595;28;20228;-68
2022/06/28 03:00:20;;;;;;;6.30;3.20;;;;;;;24.68;47.81;100149.75;4139495;28;20237;-69
2022/06/28 03:02:22;;;;;;;9.00;3.40;;;;;;;24.45;48.41;100140.63;4141513;28;20237;-68
2022/06/28 03:04:24;;;;;;;3.33;2.80;;;;;;;24.42;48.18;100141.13;4142086;28;20328;-68
2022/06/28 03:06:25;;;;;;;6.93;3.10;;;;;;;24.40;48.42;100142.44;4141808;28;20286;-68
2022/06/28 03:08:27;;;;;;;10.30;3.47;;;;;;;24.41;48.85;100146.78;4139799;28;20233;-68
2022/06/28 03:10:29;;;;;;;7.70;3.70;;;;;;;24.38;48.32;100141.84;4141842;28;20225;-68
2022/06/28 03:12:30;;;;;;;8.80;3.20;;;;;;;24.61;48.08;100143.66;4142328;28;20232;-68
2022/06/28 03:14:33;;;;;;;5.40;3.40;;;;;;;24.64;48.21;100143.97;4148605;28;21026;-68
2022/06/28 03:16:34;;;;;;;7.87;3.73;;;;;;;24.65;48.03;100142.94;4149832;28;20288;-68
2022/06/28 03:18:36;;;;;;;7.63;3.90;;;;;;;24.42;48.67;100148.47;4158236;28;20237;-68
2022/06/28 03:20:38;;;;;;;3.93;3.53;;;;;;;24.51;48.57;100138.84;4154419;28;20315;-68
2022/06/28 03:22:39;;;;;;;5.90;4.20;;;;;;;24.36;48.67;100144.78;4141098;28;20751;-68
2022/06/28 03:24:42;;;;;;;9.97;4.50;;;;;;;24.67;47.96;100138.06;4140991;28;20284;-68
2022/06/28 03:26:44;;;;;;;6.37;4.33;;;;;;;24.62;48.19;100137.97;4141540;28;20294;-68
2022/06/28 03:28:45;;;;;;;5.30;4.03;;;;;;;24.53;48.29;100147.59;4145734;28;20314;-68
2022/06/28 03:30:47;;;;;;;7.27;3.70;;;;;;;23.89;49.54;100148.44;4140485;28;20237;-68
2022/06/28 03:32:49;;;;;;;5.90;4.27;;;;;;;23.81;49.84;100156.94;4141776;28;20299;-68
2022/06/28 03:34:50;;;;;;;4.50;4.10;;;;;;;23.40;50.47;100145.09;4140447;28;20303;-71
2022/06/28 03:36:52;;;;;;;6.80;3.77;;;;;;;22.85;51.27;100162.41;4141492;28;20379;-68
2022/06/28 03:38:54;;;;;;;8.37;4.00;;;;;;;24.39;48.49;100146.22;4141483;28;20721;-68
2022/06/28 03:40:56;;;;;;;5.13;3.03;;;;;;;24.42;48.23;100145.75;4143644;28;20245;-68
2022/06/28 03:42:57;;;;;;;5.67;3.17;;;;;;;24.53;48.10;100146.75;4138201;28;20287;-69
2022/06/28 03:44:59;;;;;;;5.77;3.17;;;;;;;24.52;48.21;100151.38;4139619;28;20241;-68
2022/06/28 03:47:01;;;;;;;5.57;2.67;;;;;;;24.53;48.23;100157.63;4140783;28;20242;-69
2022/06/28 03:49:03;;;;;;;7.33;2.70;;;;;;;24.45;48.58;100159.66;4148236;28;20294;-69
2022/06/28 03:51:04;;;;;;;8.77;3.17;;;;;;;24.23;48.73;100164.94;4156717;28;20432;-69
2022/06/28 03:53:06;;;;;;;5.13;2.70;;;;;;;24.11;49.61;100159.50;4143457;28;20241;-69
2022/06/28 03:55:09;;;;;;;6.97;2.60;;;;;;;24.30;49.34;100159.38;4140441;28;20315;-69
2022/06/28 03:57:11;;;;;;;4.20;2.60;;;;;;;24.58;48.89;100163.16;4142462;28;20654;-69
2022/06/28 03:59:12;;;;;;;5.47;2.90;;;;;;;24.48;48.63;100170.06;4138597;28;20237;-68
2022/06/28 04:01:14;;;;;;;4.83;2.80;;;;;;;24.28;48.56;100177.81;4140229;28;20295;-68
2022/06/28 04:03:16;;;;;;;4.83;3.40;;;;;;;24.26;48.65;100167.16;4158021;28;20240;-68
2022/06/28 04:05:17;;;;;;;5.40;3.47;;;;;;;24.18;48.59;100172.97;4156551;28;20244;-68
2022/06/28 04:07:19;;;;;;;5.37;3.67;;;;;;;24.13;48.55;100178.28;4147161;28;20242;-68
2022/06/28 04:09:21;;;;;;;6.93;3.50;;;;;;;23.88;48.62;100175.81;4143723;28;20233;-69
2022/06/28 04:11:22;;;;;;;5.30;3.80;;;;;;;23.84;48.69;100174.63;4144969;28;20729;-68
2022/06/28 04:13:24;;;;;;;6.47;4.27;;;;;;;22.37;51.06;100184.91;4144389;28;20780;-68
2022/06/28 04:15:26;;;;;;;55.77;6.47;;;;;;;21.49;52.64;100167.84;4140825;28;20674;-69
2022/06/28 04:17:28;;;;;;;73.27;8.10;;;;;;;21.44;53.10;100163.09;4144735;28;20241;-68
2022/06/28 04:19:30;;;;;;;18.23;4.87;;;;;;;21.48;52.96;100156.19;4153960;28;20240;-68
2022/06/28 04:21:32;;;;;;;15.83;5.20;;;;;;;21.77;52.77;100140.34;4152488;28;20237;-68
2022/06/28 04:23:33;;;;;;;42.83;5.60;;;;;;;20.80;55.28;100133.38;4161439;28;20290;-68
2022/06/28 04:25:35;;;;;;;16.93;4.70;;;;;;;21.08;54.23;100124.06;4157073;28;20268;-68
2022/06/28 04:27:37;;;;;;;16.63;4.67;;;;;;;20.55;56.09;100119.81;4147142;28;20282;-68
2022/06/28 04:29:38;;;;;;;8.63;4.83;;;;;;;21.16;54.40;100112.16;4152118;28;20232;-69
2022/06/28 04:31:40;;;;;;;5.40;4.30;;;;;;;20.86;55.20;100123.56;4147661;28;20236;-68
2022/06/28 04:33:43;;;;;;;8.40;4.40;;;;;;;20.70;55.51;100110.56;4149455;28;20710;-68
2022/06/28 04:35:44;;;;;;;11.70;4.60;;;;;;;19.55;58.54;100113.88;4144129;28;20306;-68
2022/06/28 04:37:46;;;;;;;10.70;4.10;;;;;;;21.26;54.28;100104.38;4144331;28;20717;-68
2022/06/28 04:39:48;;;;;;;10.93;4.73;;;;;;;20.50;55.71;100116.94;4144078;28;20295;-69
2022/06/28 04:41:49;;;;;;;9.57;4.37;;;;;;;20.77;55.21;100117.59;4143651;28;20233;-68
2022/06/28 04:43:53;;;;;;;7.77;4.53;;;;;;;20.56;55.93;100126.84;4146327;28;20241;-68
2022/06/28 04:45:55;;;;;;;10.37;4.57;;;;;;;20.51;55.83;100140.19;4146045;28;20263;-68
2022/06/28 04:47:57;;;;;;;4.90;4.13;;;;;;;20.00;56.98;100144.50;4146540;28;20283;-67
2022/06/28 04:49:58;;;;;;;6.83;3.83;;;;;;;21.18;54.92;100121.69;4155786;28;20720;-68
2022/06/28 04:52:01;;;;;;;7.57;4.03;;;;;;;21.46;53.82;100130.41;4158237;28;20732;-68
2022/06/28 04:54:02;;;;;;;4.50;3.67;;;;;;;20.72;55.46;100141.75;4160456;28;20236;-68
2022/06/28 04:56:05;;;;;;;12.43;4.10;;;;;;;21.52;53.93;100129.53;4154793;28;20309;-68
2022/06/28 04:58:06;;;;;;;5.30;3.60;;;;;;;21.49;53.90;100136.19;4144476;28;20237;-68
2022/06/28 05:00:10;;;;;;;9.47;3.63;;;;;;;21.79;53.22;100148.25;4141219;28;20283;-68
2022/06/28 05:02:11;;;;;;;7.73;3.90;;;;;;;21.79;53.04;100161.78;4142730;28;20726;-68
2022/06/28 05:04:14;;;;;;;5.80;3.70;;;;;;;22.04;52.25;100162.53;4143815;28;20272;-68
2022/06/28 05:06:15;;;;;;;6.77;4.20;;;;;;;21.30;54.03;100175.91;4143346;28;20675;-68
2022/06/28 05:08:17;;;;;;;7.20;4.43;;;;;;;21.81;53.44;100160.50;4143038;28;20319;-68
2022/06/28 05:10:18;;;;;;;8.17;4.50;;;;;;;22.41;51.79;100169.88;4143247;28;20236;-68
2022/06/28 05:12:20;;;;;;;8.83;6.13;;;;;;;21.14;54.31;100184.53;4143071;28;20295;-68
2022/06/28 05:14:24;;;;;;;6.97;5.60;;;;;;;22.13;53.02;100160.38;4139732;28;20707;-68
2022/06/28 05:16:26;;;;;;;9.13;5.40;;;;;;;22.66;52.07;100156.22;4143503;28;20288;-68
2022/06/28 05:18:28;;;;;;;5.03;4.53;;;;;;;22.34;52.26;100169.09;4144037;28;20230;-68
2022/06/28 05:20:33;;;;;;;6.87;4.53;;;;;;;22.83;51.50;100173.47;4145773;28;20236;-68
2022/06/28 05:22:35;;;;;;;8.37;4.43;;;;;;;22.18;52.76;100182.19;4143618;28;20832;-68
2022/06/28 05:24:37;;;;;;;6.50;4.27;;;;;;;22.94;51.25;100179.19;4142889;28;20247;-68
2022/06/28 05:26:39;;;;;;;6.77;3.93;;;;;;;22.36;52.45;100183.28;4143380;28;20311;-68
2022/06/28 05:28:41;;;;;;;4.47;4.00;;;;;;;23.13;51.24;100169.94;4143175;28;20303;-68
2022/06/28 05:30:42;;;;;;;9.73;4.30;;;;;;;23.94;49.56;100177.59;4140392;28;20233;-68
2022/06/28 05:32:44;;;;;;;6.40;3.90;;;;;;;23.73;49.93;100177.09;4142545;28;20237;-68
2022/06/28 05:34:46;;;;;;;4.57;4.00;;;;;;;22.84;51.39;100190.56;4142713;28;20249;-68
2022/06/28 05:36:48;;;;;;;4.17;3.20;;;;;;;23.15;51.63;100178.69;4143516;28;20300;-68
2022/06/28 05:38:49;;;;;;;3.93;3.30;;;;;;;22.32;52.94;100184.78;4142761;28;20280;-68
2022/06/28 05:40:52;;;;;;;4.23;3.23;;;;;;;23.07;51.93;100154.59;4143866;28;20241;-68
2022/06/28 05:42:53;;;;;;;3.93;3.27;;;;;;;22.93;52.25;100162.13;4143278;28;20237;-68
2022/06/28 05:44:55;;;;;;;4.63;3.40;;;;;;;23.33;51.25;100163.38;4138076;28;20244;-68
2022/06/28 05:46:57;;;;;;;8.10;3.77;;;;;;;23.56;51.29;100157.16;4143438;28;20271;-69
2022/06/28 05:48:58;;;;;;;6.90;3.90;;;;;;;22.96;52.00;100167.06;4148369;28;20323;-68
2022/06/28 05:51:00;;;;;;;6.07;3.60;;;;;;;23.33;51.59;100147.09;4157834;28;20294;-68
2022/06/28 05:53:02;;;;;;;4.57;3.73;;;;;;;23.05;51.92;100151.28;4159194;28;20273;-68
2022/06/28 05:55:04;;;;;;;4.37;3.30;;;;;;;23.75;50.80;100144.28;4158557;28;20248;-69
2022/06/28 05:57:06;;;;;;;8.97;3.73;;;;;;;23.88;50.76;100138.63;4147322;28;20241;-68
2022/06/28 05:59:07;;;;;;;6.90;3.90;;;;;;;23.45;51.43;100145.22;4142031;28;20751;-68
2022/06/28 06:01:09;;;;;;;4.33;3.37;;;;;;;23.82;50.67;100147.69;4150738;28;20323;-68
2022/06/28 06:03:11;;;;;;;6.90;3.80;;;;;;;23.90;50.29;100147.34;4157506;28;20310;-68
2022/06/28 06:05:12;;;;;;;7.37;3.87;;;;;;;23.46;51.02;100151.47;4157888;28;20302;-68
2022/06/28 06:07:19;;;;;;;5.17;3.20;;;;;;;23.73;51.00;100130.97;4148506;28;20339;-68
2022/06/28 06:09:21;;;;;;;5.27;2.90;;;;;;;22.72;52.45;100139.00;4141677;28;20233;-68
2022/06/28 06:11:23;;;;;;;4.80;3.10;;;;;;;22.78;52.85;100146.22;4142080;28;20232;-69
2022/06/28 06:13:25;;;;;;;4.00;3.53;;;;;;;23.42;51.86;100134.00;4142468;28;20236;-68
2022/06/28 06:15:27;;;;;;;6.43;3.10;;;;;;;24.03;50.27;100127.25;4139557;28;20239;-68
2022/06/28 06:17:29;;;;;;;4.97;2.90;;;;;;;23.93;50.31;100149.59;4159072;28;20251;-69
2022/06/28 06:19:30;;;;;;;4.13;3.00;;;;;;;23.33;51.35;100155.22;4159322;28;20237;-68
2022/06/28 06:21:32;;;;;;;5.33;3.20;;;;;;;23.81;51.26;100147.97;4148090;28;20307;-68
2022/06/28 06:23:34;;;;;;;3.67;3.10;;;;;;;24.36;49.63;100136.63;4141674;28;20303;-68
2022/06/28 06:25:36;;;;;;;3.93;2.63;;;;;;;23.84;50.83;100147.47;4142224;28;20792;-69
2022/06/28 06:27:38;;;;;;;5.13;2.73;;;;;;;24.04;50.40;100141.66;4142663;28;20232;-69
2022/06/28 06:29:41;;;;;;;4.07;2.70;;;;;;;24.05;50.94;100146.84;4139325;28;20314;-68
2022/06/28 06:31:42;;;;;;;3.63;2.77;;;;;;;24.46;50.18;100136.88;4142066;28;20225;-68
2022/06/28 06:33:44;;;;;;;6.90;2.93;;;;;;;23.98;50.53;100135.31;4141870;28;20233;-68
2022/06/28 06:35:46;;;;;;;3.90;2.50;;;;;;;24.22;50.02;100133.38;4141623;28;20815;-68
2022/06/28 06:37:47;;;;;;;5.93;2.77;;;;;;;24.61;49.56;100122.72;4143065;28;20245;-69
2022/06/28 06:39:49;;;;;;;3.30;2.30;;;;;;;24.57;50.08;100137.06;4143113;28;20295;-69
2022/06/28 06:41:51;;;;;;;4.00;2.53;;;;;;;24.57;50.24;100132.44;4142098;28;20233;-68
2022/06/28 06:43:53;;;;;;;5.27;2.50;;;;;;;24.15;50.23;100142.72;4142329;28;20249;-67
2022/06/28 06:45:55;;;;;;;4.73;2.43;;;;;;;24.89;49.38;100120.25;4151755;28;20260;-69
2022/06/28 06:47:57;;;;;;;4.63;2.60;;;;;;;23.99;50.80;100131.53;4156976;28;20236;-68
2022/06/28 06:49:59;;;;;;;6.80;2.30;;;;;;;24.50;50.31;100121.72;4155267;28;20256;-68
2022/06/28 06:52:01;;;;;;;4.40;2.67;;;;;;;24.56;49.48;100133.50;4157586;28;20240;-68
2022/06/28 06:54:02;;;;;;;2.73;2.50;;;;;;;24.99;49.36;100136.75;4158147;28;20240;-68
2022/06/28 06:56:04;;;;;;;4.57;2.43;;;;;;;24.07;49.97;100138.47;4155435;28;20316;-68
2022/06/28 06:58:06;;;;;;;4.47;2.43;;;;;;;25.17;49.62;100124.78;4142194;28;20240;-68
2022/06/28 07:00:11;;;;;;;2.87;2.20;;;;;;;24.58;49.63;100139.53;4141193;28;20315;-68
2022/06/28 07:02:13;;;;;;;4.17;2.40;;;;;;;23.59;50.25;100140.41;4142295;28;20279;-68
2022/06/28 07:04:15;;;;;;;2.73;2.23;;;;;;;24.40;50.39;100107.13;4141966;28;20268;-68
2022/06/28 07:06:17;;;;;;;5.07;2.60;;;;;;;24.45;49.21;100112.66;4132549;28;20251;-68
2022/06/28 07:08:20;;;;;;;5.87;2.50;;;;;;;24.45;48.46;100124.34;4142217;28;20229;-68
2022/06/28 07:10:22;;;;;;;5.00;2.40;;;;;;;25.45;48.33;100107.56;4158883;28;20228;-68
2022/06/28 07:12:24;;;;;;;3.27;2.27;;;;;;;25.21;47.57;100123.25;4157086;28;20926;-69
2022/06/28 07:14:27;;;;;;;4.63;2.77;;;;;;;25.22;47.90;100123.00;4150635;28;20226;-69
2022/06/28 07:16:29;;;;;;;5.03;2.40;;;;;;;24.77;48.68;100120.34;4141618;28;20291;-68
2022/06/28 07:18:31;;;;;;;2.83;2.23;;;;;;;23.92;49.08;100128.09;4141427;28;20713;-68
2022/06/28 07:20:32;;;;;;;5.60;2.30;;;;;;;24.82;48.60;100123.13;4145060;28;20631;-68
2022/06/28 07:22:34;;;;;;;2.73;2.43;;;;;;;24.17;48.98;100125.13;4140911;28;20229;-68
2022/06/28 07:24:36;;;;;;;3.77;2.20;;;;;;;24.63;48.31;100111.59;4151920;28;20470;-68
2022/06/28 07:26:38;;;;;;;7.00;2.30;;;;;;;24.99;47.84;100112.28;4158385;28;20248;-68
2022/06/28 07:28:40;;;;;;;4.57;2.53;;;;;;;25.30;47.79;100105.41;4158470;28;20298;-69
2022/06/28 07:30:42;;;;;;;3.33;2.30;;;;;;;25.24;47.24;100114.59;4140143;28;21027;-69
2022/06/28 07:32:44;;;;;;;3.20;2.20;;;;;;;25.61;46.75;100105.91;4141924;28;20600;-69
2022/06/28 07:34:46;;;;;;;4.40;2.40;;;;;;;25.79;46.70;100111.03;4145849;28;20773;-70
2022/06/28 07:36:47;;;;;;;4.17;2.00;;;;;;;25.54;47.08;100116.13;4144509;28;20229;-69
2022/06/28 07:38:49;;;;;;;2.10;1.90;;;;;;;25.34;47.52;100114.75;4142080;28;20426;-68
2022/06/28 07:40:51;;;;;;;2.97;2.20;;;;;;;25.27;46.76;100114.06;4142216;28;20713;-68
2022/06/28 07:42:52;;;;;;;3.72;2.20;;;;;;;25.75;45.56;100101.75;4141027;28;20613;-69
2022/06/28 07:44:54;;;;;;;2.85;1.90;;;;;;;25.17;46.49;100114.75;4148784;28;20294;-68
2022/06/28 07:46:56;;;;;;;2.50;2.00;;;;;;;25.40;46.31;100107.50;4153378;28;20676;-68
2022/06/28 07:48:58;;;;;;;3.63;1.97;;;;;;;25.42;46.23;100125.25;4156617;28;20232;-68
2022/06/28 07:53:20;;;;;;;2.90;2.00;;;;;;;25.49;45.79;100105.19;4161021;28;20267;-68
2022/06/28 07:55:22;;;;;;;3.30;1.93;;;;;;;25.91;44.06;100091.88;4159911;28;20290;-68
2022/06/28 07:57:24;;;;;;;6.47;2.40;;;;;;;26.26;44.27;100092.59;4147884;28;20741;-68
2022/06/28 07:59:25;;;;;;;5.20;2.30;;;;;;;24.56;45.97;100114.47;4141539;28;20280;-69
2022/06/28 08:01:28;;;;;;;2.00;1.80;;;;;;;25.54;45.79;100105.25;4144200;28;20271;-69
2022/06/28 08:03:30;;;;;;;3.87;1.63;;;;;;;25.38;45.49;100107.75;4143998;28;20241;-69
2022/06/28 08:05:32;;;;;;;3.77;2.03;;;;;;;25.87;43.89;100106.25;4144452;28;20268;-68
2022/06/28 08:07:34;;;;;;;3.25;2.30;;;;;;;26.09;44.60;100104.38;4143584;28;20241;-69
2022/06/28 08:09:35;;;;;;;2.65;1.67;;;;;;;25.23;44.89;100104.75;4145125;28;20670;-70
2022/06/28 08:11:39;;;;;;;3.53;1.90;;;;;;;26.38;43.58;100095.16;4144658;28;20303;-69
2022/06/28 08:13:40;;;;;;;6.63;1.77;;;;;;;25.49;44.57;100110.63;4143381;28;20326;-69
2022/06/28 08:15:43;;;;;;;3.67;1.67;;;;;;;25.92;44.91;100100.88;4141281;28;20310;-68
2022/06/28 08:17:45;;;;;;;2.72;1.92;;;;;;;25.54;45.10;100091.63;4144397;28;20682;-68
2022/06/28 08:19:47;;;;;;;2.35;1.70;;;;;;;25.79;43.98;100093.88;4143770;28;20732;-69
2022/06/28 08:21:49;;;;;;;2.75;1.88;;;;;;;25.29;44.34;100084.72;4155496;28;20295;-68
2022/06/28 08:23:50;;;;;;;3.97;1.80;;;;;;;25.23;44.23;100074.84;4143653;28;20243;-68
2022/06/28 08:25:52;;;;;;;2.90;2.00;;;;;;;24.75;45.63;100081.63;4143441;28;20240;-69
2022/06/28 08:27:54;;;;;;;3.03;1.80;;;;;;;25.86;44.62;100066.47;4152851;28;20233;-69
2022/06/28 08:29:55;;;;;;;2.95;1.70;;;;;;;25.63;43.63;100072.97;4149549;28;20717;-69
2022/06/28 08:31:57;;;;;;;3.20;1.90;;;;;;;26.07;43.99;100062.94;4146544;28;20237;-68
2022/06/28 08:33:59;;;;;;;3.92;2.00;;;;;;;26.12;43.78;100059.47;4159097;28;20232;-69
2022/06/28 08:36:00;;;;;;;4.03;1.70;;;;;;;25.59;44.41;100053.59;4161339;28;20229;-68
2022/06/28 08:38:05;;;;;;;3.88;1.60;;;;;;;25.94;43.50;100055.16;4151118;28;20657;-70
2022/06/28 08:40:07;;;;;;;3.08;1.58;;;;;;;25.31;43.71;100060.81;4160186;28;20705;-69
2022/06/28 08:42:11;;;;;;;2.03;1.75;;;;;;;26.42;43.31;100045.34;4160845;28;20318;-69
2022/06/28 08:44:14;;;;;;;15.90;1.83;;;;;;;26.22;42.98;100040.50;4170477;28;20267;-69
2022/06/28 08:46:16;;;;;;;2.72;1.70;;;;;;;25.56;43.30;100046.75;4152658;28;20283;-70
2022/06/28 08:48:31;;;;;;;5.43;2.00;;;;;;;25.69;42.29;100047.47;4136494;28;20231;-69
2022/06/28 08:50:33;;;;;;;2.03;1.73;;;;;;;25.65;42.66;100040.88;4159363;28;20228;-69
2022/06/28 08:52:35;;;;;;;3.22;1.63;;;;;;;26.26;42.74;100048.97;4159860;28;20228;-69
2022/06/28 08:54:38;;;;;;;5.65;1.50;;;;;;;26.07;41.85;100040.34;4158979;28;20277;-69
2022/06/28 08:56:40;;;;;;;1.90;1.23;;;;;;;27.37;42.16;100043.94;4152877;28;21002;-69
2022/06/28 08:58:45;;;;;;;2.35;1.52;;;;;;;26.39;41.44;100037.66;4149340;28;20372;-69
2022/06/28 09:00:47;;;;;;;2.22;1.52;;;;;;;27.10;41.55;100028.47;4143140;28;20715;-69
2022/06/28 09:02:49;;;;;;;2.92;1.50;;;;;;;25.97;41.19;100044.56;4143289;28;20594;-69
2022/06/28 09:04:53;;;;;;;2.75;1.38;;;;;;;27.22;40.90;100022.81;4143211;28;20298;-69
2022/06/28 09:06:55;;;;;;;1.95;1.58;;;;;;;27.18;41.56;100027.16;4143873;28;20237;-69
2022/06/28 09:08:56;;;;;;;2.08;1.50;;;;;;;26.69;40.32;100028.16;4142809;28;20229;-70
2022/06/28 09:10:58;;;;;;;1.83;1.60;;;;;;;27.15;41.10;100028.50;4143221;28;20236;-70
2022/06/28 09:13:05;;;;;;;1.35;1.25;;;;;;;26.61;39.95;100037.63;4143112;28;20671;-70
2022/06/28 09:15:08;;;;;;;3.30;1.60;;;;;;;26.64;40.80;100031.66;4139713;28;20283;-70
2022/06/28 09:17:27;;;;;;;3.30;1.67;;;;;;;27.36;40.30;100039.56;4143368;28;20244;-69
2022/06/28 09:19:34;;;;;;;2.75;1.48;;;;;;;27.27;38.50;100041.97;4143463;28;20237;-70
2022/06/28 09:21:41;;;;;;;2.08;1.20;;;;;;;26.20;39.45;100025.47;4145730;28;20291;-70
2022/06/28 09:23:49;;;;;;;3.75;1.65;;;;;;;27.10;39.70;100027.66;4143126;28;20263;-70
2022/06/28 09:25:53;;;;;;;2.33;1.60;;;;;;;27.53;40.04;100018.34;4142800;28;20230;-70
2022/06/28 09:27:57;;;;;;;2.20;1.60;;;;;;;28.00;39.44;100022.94;4142561;28;20237;-70
2022/06/28 09:30:00;;;;;;;1.83;1.30;;;;;;;26.66;38.99;100023.22;4140306;28;20233;-70
2022/06/28 09:32:02;;;;;;;3.03;1.52;;;;;;;27.42;39.51;100022.94;4143327;28;20653;-70
2022/06/28 09:34:07;;;;;;;2.75;1.25;;;;;;;27.65;38.98;100003.66;4142371;28;20314;-70
2022/06/28 09:36:17;;;;;;;4.30;1.48;;;;;;;27.79;38.70;100004.84;4142658;28;20311;-70
2022/06/28 09:38:35;;;;;;;2.25;1.40;;;;;;;27.06;39.30;100021.88;4143501;28;20229;-70
2022/06/28 09:40:37;;;;;;;1.60;1.40;;;;;;;26.85;39.08;100005.34;4143244;28;20258;-70